Linn, KS (66953)

2:39 PM CST on December 10, 2016 (GMT -0600)
Strawberry | | Change Station

Elev 1463 ft 39.73 °N, 97.19 °W | Updated 37 seconds ago

Overcast
Overcast
36.1 °F
Feels Like 26 °F
N
17.0
Wind Variable Wind from SE

Today
High -- | Low -- °F
--% Chance of Precip.
Yesterday
High -- | Low -- °F
Precip. -- in
Pressure 30.09 in
Visibility 10.0 miles
Clouds Few 4100 ft
Windchill 26 °F
Dew Point 25 °F
Humidity 65%
Rainfall 0.00 in
Snow Depth Not available.
7:38 AM 5:04 PM
Waxing Gibbous, 86% visible
METAR KCNK 101955Z AUTO 15016KT 10SM FEW041 02/M06 A3004 RMK AO2 SLP189 T00221061
Pressure 30.09 in
Visibility 10.0 miles
Clouds Few 4100 ft
Windchill 26 °F
Dew Point 25 °F
Humidity 65%
Rainfall 0.00 in
Snow Depth Not available.
7:38 AM 5:04 PM
Waxing Gibbous, 86% visible
METAR KCNK 101955Z AUTO 15016KT 10SM FEW041 02/M06 A3004 RMK AO2 SLP189 T00221061

10-Day Weather Forecast

Almanac

Astronomy

Dec. 10, 2016 Rise Set
Actual Time
Civil Twilight
Nautical Twilight
Astronomical Twilight
Moon
Length of Visible Light
Length of Day
Tomorrow will be .
, % of the Moon is Illuminated

Today's Extremes

State Highs State Lows

Community

WunderPhotos

Upload Photos

1,956,660 photos uploaded!

WunderBlog® & News

Nearby

Air Quality

  Air Quality AQ Index Pollutant
Not available.

Snow Depth

Station Depth Elevation

Earthquake Activity

City Distance Mag. Time & Date
Minimum magnitude displayed is 2.5.

Coastal Water Temperatures

Place Temperature

Stations

Nearby Weather Stations

Station Location Temp. Windchill Dew Point Humidity Wind Precip. Elev Updated Type
                   

Watches & Warnings

There are currently no watches in effect.